Time;durP1;ratioP1;P1;durP2;ratioP2;P2;SDS_P1;SDS_P2;PMS_P1;PMS_P2;Temp;Humidity;BMP_temperature;BMP_pressure;BME280_temperature;BME280_humidity;BME280_pressure;Samples;Min_cycle;Max_cycle;Signal;HPM_P1;HPM_P2
2022/02/05 00:01:16;;;;;;;1.45;0.73;;;;;;;1.33;100.00;96039.44;5114154;28;24418;-76
2022/02/05 00:03:47;;;;;;;2.35;0.88;;;;;;;1.35;100.00;96041.97;5113957;28;24429;-77
2022/02/05 00:06:18;;;;;;;1.77;0.82;;;;;;;1.32;100.00;96044.59;5113928;28;24486;-76
2022/02/05 00:08:57;;;;;;;1.77;0.70;;;;;;;1.18;100.00;96053.38;5113942;28;24425;-76
2022/02/05 00:14:29;;;;;;;1.20;0.60;;;;;;;1.04;100.00;96042.63;5113868;28;24416;-76
2022/02/05 00:39:18;;;;;;;4.30;1.10;;;;;;;0.88;100.00;96054.00;5113162;28;24393;-76
2022/02/05 00:41:51;;;;;;;1.60;0.73;;;;;;;0.83;100.00;96073.66;5113309;28;24428;-76
2022/02/05 00:44:18;;;;;;;2.33;1.00;;;;;;;0.93;100.00;96070.91;5112661;28;24978;-76
2022/02/05 00:46:46;;;;;;;1.77;0.88;;;;;;;1.10;100.00;96074.81;5112695;28;24433;-76
2022/02/05 00:49:14;;;;;;;1.70;0.90;;;;;;;1.08;100.00;96076.56;5113163;28;24434;-76
2022/02/05 00:51:45;;;;;;;2.70;1.17;;;;;;;1.00;100.00;96080.97;5112773;28;24976;-76
2022/02/05 00:54:14;;;;;;;1.00;0.80;;;;;;;1.15;100.00;96089.16;5112780;28;24845;-76
2022/02/05 00:59:32;;;;;;;2.03;0.95;;;;;;;1.27;100.00;96095.72;5101598;28;24486;-76
2022/02/05 01:01:58;;;;;;;1.50;0.95;;;;;;;1.39;100.00;96097.16;5112968;28;24417;-76
2022/02/05 01:04:25;;;;;;;1.10;0.70;;;;;;;1.35;100.00;96111.69;5112384;28;24977;-76
2022/02/05 01:06:51;;;;;;;1.50;0.77;;;;;;;1.41;100.00;96108.19;5112011;28;24988;-76
2022/02/05 01:09:21;;;;;;;3.63;1.10;;;;;;;1.04;100.00;96119.16;5111878;28;24825;-75
2022/02/05 01:11:48;;;;;;;2.55;1.00;;;;;;;0.82;100.00;96118.72;5112514;28;24560;-75
2022/02/05 01:14:18;;;;;;;5.03;1.30;;;;;;;0.89;100.00;96125.41;5112457;28;24977;-75
2022/02/05 01:16:54;;;;;;;3.25;1.20;;;;;;;0.73;100.00;96129.09;5112510;28;24472;-75
2022/02/05 01:19:44;;;;;;;4.50;1.20;;;;;;;0.56;100.00;96129.41;5112428;28;24787;-75
2022/02/05 01:22:12;;;;;;;4.47;1.33;;;;;;;0.49;100.00;96135.47;5112328;28;24428;-75
2022/02/05 01:24:40;;;;;;;7.30;1.30;;;;;;;0.47;100.00;96142.31;5112328;28;24499;-75
2022/02/05 01:27:11;;;;;;;4.00;1.27;;;;;;;0.43;100.00;96150.88;5112014;28;24456;-75
2022/02/05 01:29:51;;;;;;;9.15;1.50;;;;;;;0.42;100.00;96146.66;5112370;28;24887;-75
2022/02/05 01:32:23;;;;;;;4.85;1.40;;;;;;;0.46;100.00;96154.22;5112220;28;24545;-75
2022/02/05 01:34:58;;;;;;;6.15;1.20;;;;;;;0.52;100.00;96148.19;5112071;28;24464;-75
2022/02/05 01:51:23;;;;;;;4.33;1.60;;;;;;;0.55;100.00;96147.25;5111705;28;24405;-75
2022/02/05 01:54:14;;;;;;;4.90;1.65;;;;;;;0.52;100.00;96154.94;5111578;28;24961;-75
2022/02/05 01:56:45;;;;;;;3.80;1.37;;;;;;;0.54;100.00;96153.22;5111213;28;24974;-75
2022/02/05 01:59:23;;;;;;;2.35;1.17;;;;;;;0.40;100.00;96156.84;5111584;28;24433;-76
2022/02/05 02:04:50;;;;;;;3.95;1.40;;;;;;;0.35;100.00;96160.34;5111300;28;24425;-76
2022/02/05 02:09:35;;;;;;;2.53;1.30;;;;;;;0.36;100.00;96157.75;5111235;27;24525;-76
2022/02/05 02:10:28;;;;;;;2.97;1.50;;;;;;;0.34;100.00;96167.16;5111188;28;24541;-76
2022/02/05 02:13:11;;;;;;;2.78;1.45;;;;;;;0.24;100.00;96170.72;5111418;28;24509;-77
2022/02/05 02:15:44;;;;;;;4.60;1.42;;;;;;;0.23;100.00;96166.50;5111272;28;24517;-76
2022/02/05 02:18:29;;;;;;;5.47;1.65;;;;;;;0.09;100.00;96174.34;5111054;28;24417;-77
2022/02/05 02:21:11;;;;;;;3.55;1.30;;;;;;;0.24;100.00;96170.72;5111239;28;24478;-77
2022/02/05 02:23:54;;;;;;;4.88;1.65;;;;;;;0.16;100.00;96170.00;5111079;28;24434;-77
2022/02/05 02:26:31;;;;;;;4.80;1.70;;;;;;;0.17;100.00;96166.56;5111211;28;24433;-76
2022/02/05 02:29:06;;;;;;;4.43;1.40;;;;;;;0.07;100.00;96167.56;5110901;28;25004;-75
2022/02/05 02:31:37;;;;;;;6.25;1.77;;;;;;;-0.02;100.00;96168.56;5111213;28;24440;-75
2022/02/05 02:34:07;;;;;;;2.95;1.40;;;;;;;0.05;100.00;96167.63;5111002;28;24981;-76
2022/02/05 02:36:38;;;;;;;4.75;1.75;;;;;;;0.03;100.00;96171.03;5110739;28;24452;-74
2022/02/05 02:39:10;;;;;;;5.50;1.60;;;;;;;0.00;100.00;96169.41;5111183;28;24829;-75
2022/02/05 02:41:44;;;;;;;2.13;1.33;;;;;;;0.09;100.00;96170.97;5111111;28;24538;-76
2022/02/05 02:44:11;;;;;;;5.47;1.83;;;;;;;0.27;100.00;96169.84;5110830;28;24862;-77
2022/02/05 02:46:38;;;;;;;3.47;1.73;;;;;;;0.35;100.00;96170.53;5110817;28;24457;-77
2022/02/05 02:49:07;;;;;;;3.80;1.90;;;;;;;0.26;100.00;96175.78;5111607;28;24449;-75
2022/02/05 02:57:15;;;;;;;5.33;2.33;;;;;;;0.20;100.00;96199.66;5110807;28;24406;-75
2022/02/05 02:59:51;;;;;;;3.50;1.63;;;;;;;0.21;100.00;96191.13;5110884;28;24413;-76
2022/02/05 03:02:19;;;;;;;7.68;1.92;;;;;;;-0.13;100.00;96194.19;5110591;28;24486;-76
2022/02/05 03:04:46;;;;;;;4.07;1.85;;;;;;;-0.21;100.00;96188.38;5110374;28;24463;-76
2022/02/05 03:07:13;;;;;;;7.18;1.75;;;;;;;-0.14;100.00;96192.50;5110518;28;24416;-76
2022/02/05 03:09:42;;;;;;;4.20;1.88;;;;;;;-0.15;100.00;96195.06;5110690;28;24417;-75
2022/02/05 03:12:09;;;;;;;4.07;1.90;;;;;;;0.00;100.00;96197.41;5110614;28;24490;-76
2022/02/05 03:14:36;;;;;;;3.47;1.88;;;;;;;0.10;100.00;96201.47;5110463;28;24429;-76
2022/02/05 03:17:14;;;;;;;3.67;1.65;;;;;;;0.09;100.00;96202.34;5110217;28;24954;-77
2022/02/05 03:19:40;;;;;;;4.72;2.17;;;;;;;0.01;100.00;96191.44;5110820;28;24783;-76
2022/02/05 03:22:06;;;;;;;3.42;1.75;;;;;;;-0.09;100.00;96207.72;5110663;28;24417;-76
2022/02/05 03:24:33;;;;;;;3.73;1.80;;;;;;;-0.06;100.00;96200.88;5110440;28;24437;-76
2022/02/05 03:27:01;;;;;;;4.73;2.03;;;;;;;-0.21;100.00;96200.25;5110397;28;24441;-76
2022/02/05 03:29:27;;;;;;;4.10;1.70;;;;;;;-0.17;100.00;96201.91;5110421;28;24429;-77
2022/02/05 03:31:53;;;;;;;4.50;2.05;;;;;;;-0.21;100.00;96198.56;5113085;28;24425;-76
2022/02/05 03:34:20;;;;;;;4.20;1.90;;;;;;;-0.19;100.00;96198.50;5114489;28;24430;-76
2022/02/05 03:36:46;;;;;;;4.88;2.28;;;;;;;-0.34;100.00;96207.19;5114339;28;24414;-76
2022/02/05 03:39:13;;;;;;;4.53;2.20;;;;;;;-0.39;100.00;96214.91;5114456;28;24418;-76
2022/02/05 03:41:39;;;;;;;4.50;2.28;;;;;;;-0.42;100.00;96220.03;5114438;28;24434;-76
2022/02/05 03:44:07;;;;;;;6.63;2.00;;;;;;;-0.43;100.00;96220.06;5113942;28;25023;-76
2022/02/05 03:46:34;;;;;;;4.15;2.17;;;;;;;-0.41;100.00;96220.88;5114102;28;24825;-77
2022/02/05 03:49:00;;;;;;;4.90;2.05;;;;;;;-0.41;100.00;96224.25;5114180;28;24424;-76
2022/02/05 03:51:27;;;;;;;5.75;2.03;;;;;;;-0.40;100.00;96230.19;5114243;28;24447;-76
2022/02/05 03:53:53;;;;;;;2.65;1.70;;;;;;;-0.37;100.00;96235.22;5114170;28;24806;-76
2022/02/05 03:56:20;;;;;;;5.47;1.88;;;;;;;-0.32;100.00;96247.03;5113931;28;24426;-77
2022/02/05 03:58:46;;;;;;;4.43;1.75;;;;;;;-0.27;100.00;96244.44;5113871;28;24970;-77
2022/02/05 04:01:15;;;;;;;4.03;1.65;;;;;;;-0.16;100.00;96246.84;5114082;28;24825;-76
2022/02/05 04:03:42;;;;;;;3.30;1.50;;;;;;;-0.12;100.00;96249.31;5113803;28;24539;-76
2022/02/05 04:06:08;;;;;;;2.63;1.40;;;;;;;-0.17;100.00;96243.47;5113847;28;24449;-76
2022/02/05 04:08:35;;;;;;;3.83;1.50;;;;;;;-0.14;100.00;96256.16;5113472;28;24969;-76
2022/02/05 04:11:06;;;;;;;2.90;1.60;;;;;;;-0.10;100.00;96255.25;5113863;28;24562;-76
2022/02/05 04:16:22;;;;;;;3.77;1.67;;;;;;;-0.14;100.00;96270.59;5113462;28;24409;-76
2022/02/05 04:18:49;;;;;;;3.15;1.70;;;;;;;-0.11;100.00;96267.97;5113463;28;25080;-75
2022/02/05 04:21:16;;;;;;;4.38;1.70;;;;;;;-0.06;100.00;96276.41;5113329;28;24465;-76
2022/02/05 04:23:43;;;;;;;6.25;2.10;;;;;;;-0.07;100.00;96274.75;5113255;28;24483;-76
2022/02/05 04:26:09;;;;;;;4.40;1.75;;;;;;;-0.07;100.00;96272.19;5113262;28;24437;-75
2022/02/05 04:28:36;;;;;;;3.47;1.63;;;;;;;-0.04;100.00;96284.88;5113119;28;24470;-76
2022/02/05 04:31:02;;;;;;;5.07;1.85;;;;;;;-0.01;100.00;96283.13;5113296;28;24417;-76
2022/02/05 04:33:30;;;;;;;2.67;1.58;;;;;;;-0.01;100.00;96293.31;5113124;28;24429;-75
2022/02/05 04:35:57;;;;;;;5.00;2.00;;;;;;;-0.06;100.00;96284.06;5112905;28;24475;-76
2022/02/05 04:38:24;;;;;;;4.03;2.10;;;;;;;-0.08;100.00;96289.16;5113175;28;24430;-75
2022/02/05 04:40:54;;;;;;;6.13;2.17;;;;;;;-0.17;100.00;96291.00;5113072;28;24879;-76
2022/02/05 04:43:41;;;;;;;3.43;1.90;;;;;;;-0.03;100.00;96284.88;5112952;28;24426;-76
2022/02/05 04:49:14;;;;;;;9.35;2.30;;;;;;;-0.31;100.00;96280.97;5112467;28;24982;-76
2022/02/05 04:52:07;;;;;;;4.25;1.65;;;;;;;-0.33;100.00;96296.28;5112842;28;24418;-76
2022/02/05 04:54:50;;;;;;;4.05;1.50;;;;;;;-0.31;100.00;96289.44;5112616;28;24438;-75
2022/02/05 04:57:34;;;;;;;6.30;1.55;;;;;;;-0.33;100.00;96298.81;5112707;28;24508;-76
2022/02/05 05:00:17;;;;;;;3.97;1.67;;;;;;;-0.31;100.00;96289.44;5112833;28;24432;-76
2022/02/05 05:03:04;;;;;;;5.07;1.80;;;;;;;-0.18;100.00;96284.22;5112459;28;25054;-75
2022/02/05 05:05:50;;;;;;;4.20;1.37;;;;;;;0.01;100.00;96288.22;5112441;28;25038;-76
2022/02/05 05:08:36;;;;;;;2.95;1.35;;;;;;;0.12;100.00;96283.81;5112326;28;24421;-76
2022/02/05 05:11:37;;;;;;;2.88;1.52;;;;;;;0.16;100.00;96289.72;5112497;28;24433;-76
2022/02/05 05:19:37;;;;;;;6.45;4.47;;;;;;;0.26;100.00;96301.47;5112382;28;24429;-75
2022/02/05 05:22:05;;;;;;;7.05;3.95;;;;;;;0.24;100.00;96304.03;5112521;28;24457;-75
2022/02/05 05:24:32;;;;;;;3.90;2.37;;;;;;;0.30;100.00;96297.13;5112185;28;24482;-75
2022/02/05 05:26:59;;;;;;;5.43;2.30;;;;;;;0.17;100.00;96307.50;5111918;28;24974;-75
2022/02/05 05:29:25;;;;;;;3.97;1.80;;;;;;;0.15;100.00;96298.19;5112301;28;24961;-75
2022/02/05 05:31:52;;;;;;;4.22;1.77;;;;;;;0.03;100.00;96303.47;5112432;27;24457;-75
2022/02/05 05:34:18;;;;;;;2.85;1.38;;;;;;;0.07;100.00;96298.28;5112047;28;25251;-75
2022/02/05 05:36:45;;;;;;;4.10;2.55;;;;;;;-0.08;100.00;96309.53;5111566;28;24946;-75
2022/02/05 05:39:14;;;;;;;4.50;2.50;;;;;;;-0.15;100.00;96310.50;5111944;28;24775;-75
2022/02/05 05:41:40;;;;;;;6.97;2.22;;;;;;;0.03;100.00;96303.47;5111952;28;24430;-75
2022/02/05 05:44:31;;;;;;;2.93;1.97;;;;;;;0.05;100.00;96317.88;5111659;28;24795;-76
2022/02/05 05:47:15;;;;;;;3.33;1.95;;;;;;;0.08;100.00;96317.84;5111597;28;24503;-75
2022/02/05 05:49:58;;;;;;;4.35;1.50;;;;;;;0.13;100.00;96320.31;5111937;28;24779;-75
2022/02/05 05:52:25;;;;;;;4.43;2.60;;;;;;;0.18;100.00;96324.47;5111361;28;24943;-75
2022/02/05 05:54:53;;;;;;;4.07;1.90;;;;;;;0.23;100.00;96330.38;5111117;28;24416;-75
2022/02/05 05:57:20;;;;;;;3.13;1.80;;;;;;;0.16;100.00;96327.91;5111470;28;24974;-75
2022/02/05 05:59:47;;;;;;;4.40;1.97;;;;;;;0.17;100.00;96334.69;5111777;28;24875;-75
2022/02/05 06:02:13;;;;;;;4.78;2.30;;;;;;;0.01;100.00;96333.22;5111503;28;24429;-75
2022/02/05 06:04:40;;;;;;;6.47;4.18;;;;;;;-0.01;100.00;96328.97;5111221;28;24982;-75
2022/02/05 06:07:06;;;;;;;6.40;3.50;;;;;;;-0.14;100.00;96341.88;5111127;28;24448;-75
2022/02/05 06:09:34;;;;;;;8.38;3.30;;;;;;;0.02;100.00;96330.63;5111441;28;24491;-75
2022/02/05 06:12:02;;;;;;;6.07;2.58;;;;;;;0.05;100.00;96332.31;5111465;28;24486;-75
2022/02/05 06:14:29;;;;;;;11.32;5.95;;;;;;;-0.01;100.00;96330.66;5111565;28;24425;-75
2022/02/05 06:17:00;;;;;;;13.50;6.97;;;;;;;-0.09;100.00;96342.66;5111202;28;24429;-76
2022/02/05 06:19:27;;;;;;;15.90;8.18;;;;;;;-0.12;100.00;96343.53;5111433;28;24428;-75
2022/02/05 06:21:53;;;;;;;8.63;5.65;;;;;;;0.00;100.00;96350.19;5111228;28;24466;-75
2022/02/05 06:24:20;;;;;;;13.05;5.72;;;;;;;-0.01;100.00;96351.03;5111088;28;24487;-75
2022/02/05 06:26:46;;;;;;;8.93;4.38;;;;;;;0.04;100.00;96349.31;5110835;28;25035;-75
2022/02/05 06:29:14;;;;;;;8.52;4.22;;;;;;;0.16;100.00;96350.84;5111402;28;24455;-75
2022/02/05 06:31:40;;;;;;;5.68;3.55;;;;;;;0.54;100.00;96352.88;5111362;28;24429;-75
2022/02/05 06:34:07;;;;;;;6.18;2.97;;;;;;;0.39;100.00;96361.56;5111068;28;24959;-76
2022/02/05 06:36:34;;;;;;;5.50;2.75;;;;;;;0.36;100.00;96365.84;5110630;28;24939;-75
2022/02/05 06:39:00;;;;;;;4.88;2.35;;;;;;;0.61;100.00;96363.81;5110796;28;24864;-76
2022/02/05 06:41:27;;;;;;;4.88;2.53;;;;;;;0.48;100.00;96361.47;5111109;28;24462;-75
2022/02/05 06:43:53;;;;;;;5.05;3.10;;;;;;;0.39;100.00;96363.28;5111310;28;24425;-75
2022/02/05 06:46:21;;;;;;;7.22;3.28;;;;;;;0.44;100.00;96367.44;5111313;28;24448;-74
2022/02/05 06:48:47;;;;;;;6.43;3.20;;;;;;;0.50;100.00;96361.41;5110985;28;24830;-75
2022/02/05 06:51:14;;;;;;;4.20;2.37;;;;;;;0.29;100.00;96366.81;5111159;28;24466;-75
2022/02/05 06:53:40;;;;;;;4.55;2.40;;;;;;;0.16;100.00;96381.41;5110987;28;24482;-75
2022/02/05 06:56:07;;;;;;;5.57;1.85;;;;;;;0.22;100.00;96377.09;5111107;28;24431;-76
2022/02/05 06:58:33;;;;;;;9.77;2.70;;;;;;;0.05;100.00;96380.69;5110657;28;24493;-77
2022/02/05 07:00:59;;;;;;;6.97;2.65;;;;;;;-0.04;100.00;96381.63;5111137;28;24810;-76
2022/02/05 07:03:27;;;;;;;4.57;2.28;;;;;;;0.07;100.00;96386.59;5110801;28;24930;-76
2022/02/05 07:05:54;;;;;;;4.53;2.15;;;;;;;0.03;100.00;96397.69;5106584;28;24437;-76
2022/02/05 07:08:20;;;;;;;5.35;2.92;;;;;;;0.05;100.00;96393.44;5114432;28;24992;-76
2022/02/05 07:10:47;;;;;;;4.65;2.47;;;;;;;0.04;100.00;96387.50;5114824;28;24482;-76
2022/02/05 07:13:16;;;;;;;6.35;2.67;;;;;;;0.07;100.00;96382.34;5114618;28;25011;-76
2022/02/05 07:15:49;;;;;;;6.15;2.53;;;;;;;0.17;100.00;96388.19;5114632;28;24425;-75
2022/02/05 07:18:24;;;;;;;5.47;2.10;;;;;;;0.33;100.00;96387.13;5114270;28;25023;-76
2022/02/05 07:20:56;;;;;;;5.15;2.58;;;;;;;0.48;100.00;96396.25;5114790;28;24504;-75
2022/02/05 07:31:31;;;;;;;5.10;2.65;;;;;;;0.31;100.00;96403.31;5115290;28;24428;-75
2022/02/05 07:34:00;;;;;;;6.60;3.30;;;;;;;0.55;100.00;96402.97;5114510;28;24430;-76
2022/02/05 07:36:28;;;;;;;8.73;4.15;;;;;;;0.75;100.00;96402.72;5113912;28;24947;-76
2022/02/05 07:38:55;;;;;;;8.25;4.97;;;;;;;0.90;100.00;96405.03;5114054;28;24421;-76
2022/02/05 07:41:21;;;;;;;4.97;3.30;;;;;;;1.15;100.00;96409.75;5117688;28;24421;-76
2022/02/05 07:43:48;;;;;;;6.17;2.67;;;;;;;1.14;100.00;96410.63;5118636;28;24515;-76
2022/02/05 07:46:14;;;;;;;3.60;2.05;;;;;;;1.08;100.00;96410.75;5115952;28;24425;-75
2022/02/05 07:48:41;;;;;;;4.95;1.90;;;;;;;1.01;100.00;96419.34;5114188;28;24416;-74
2022/02/05 07:51:08;;;;;;;3.73;1.70;;;;;;;0.93;100.00;96420.31;5113939;28;24432;-75
2022/02/05 07:53:36;;;;;;;3.08;2.00;;;;;;;0.84;100.00;96427.22;5114454;28;24418;-75
2022/02/05 07:56:05;;;;;;;4.43;2.13;;;;;;;0.63;100.00;96421.56;5113571;28;24974;-75
2022/02/05 07:58:33;;;;;;;4.50;2.03;;;;;;;0.58;100.00;96437.78;5113601;28;24433;-76
2022/02/05 08:00:59;;;;;;;5.57;2.65;;;;;;;0.61;100.00;96433.47;5113946;28;24516;-75
2022/02/05 08:03:26;;;;;;;10.00;2.72;;;;;;;0.57;100.00;96428.47;5113809;28;24421;-76
2022/02/05 08:05:52;;;;;;;5.70;2.35;;;;;;;0.69;100.00;96434.22;5113688;28;24791;-76
2022/02/05 08:08:26;;;;;;;9.52;2.35;;;;;;;0.65;100.00;96430.03;5113343;28;24453;-76
2022/02/05 08:10:56;;;;;;;4.85;2.47;;;;;;;0.79;100.00;96421.34;5113861;28;24540;-76
2022/02/05 08:13:25;;;;;;;9.95;2.70;;;;;;;0.72;100.00;96431.63;5113733;28;24457;-76
2022/02/05 08:15:55;;;;;;;4.95;2.40;;;;;;;0.84;100.00;96427.22;5113639;28;24471;-75
2022/02/05 08:18:22;;;;;;;7.80;2.08;;;;;;;0.87;100.00;96438.22;5112735;28;24975;-75
2022/02/05 08:20:48;;;;;;;3.53;1.80;;;;;;;0.90;100.00;96434.81;5113394;28;24426;-76
2022/02/05 08:23:15;;;;;;;3.70;1.90;;;;;;;0.95;100.00;96441.50;5113451;28;24764;-75
2022/02/05 08:25:41;;;;;;;4.68;1.60;;;;;;;1.12;100.00;96440.44;5113556;28;24425;-75
2022/02/05 08:28:09;;;;;;;6.30;1.90;;;;;;;1.14;100.00;96444.63;5113169;28;24449;-75
2022/02/05 08:30:36;;;;;;;7.30;2.08;;;;;;;1.28;100.00;96444.44;5113307;28;24422;-75
2022/02/05 08:33:03;;;;;;;5.35;1.52;;;;;;;1.26;100.00;96440.19;5113095;28;24417;-75
2022/02/05 08:35:30;;;;;;;5.65;1.55;;;;;;;1.29;100.00;96450.38;5109200;28;25070;-75
2022/02/05 08:37:58;;;;;;;4.88;1.90;;;;;;;1.30;100.00;96449.50;5101633;28;24438;-75
2022/02/05 08:40:25;;;;;;;5.38;1.73;;;;;;;1.37;100.00;96456.19;5108984;28;24462;-75
2022/02/05 08:42:51;;;;;;;6.77;2.10;;;;;;;1.42;100.00;96451.88;5101091;28;24494;-76
2022/02/05 08:45:19;;;;;;;6.40;2.30;;;;;;;1.48;100.00;96453.47;5108231;28;24436;-75
2022/02/05 08:47:45;;;;;;;4.65;2.00;;;;;;;1.60;100.00;96450.72;5112584;28;24452;-75
2022/02/05 08:50:12;;;;;;;7.53;2.13;;;;;;;1.64;100.00;96454.91;5113127;28;24425;-76
2022/02/05 08:52:40;;;;;;;7.50;2.20;;;;;;;1.83;100.00;96468.22;5113029;28;24466;-75
2022/02/05 08:55:08;;;;;;;9.68;1.90;;;;;;;1.99;100.00;96463.66;5105624;28;24476;-75
2022/02/05 08:57:35;;;;;;;9.65;2.80;;;;;;;2.08;100.00;96469.47;5112596;28;24487;-75
2022/02/05 09:00:09;;;;;;;10.27;2.55;;;;;;;2.26;100.00;96465.69;5113624;28;24843;-75
2022/02/05 09:02:43;;;;;;;8.90;3.50;;;;;;;2.31;100.00;96461.34;5113013;28;24421;-75
2022/02/05 09:05:15;;;;;;;6.25;2.28;;;;;;;2.46;100.00;96460.22;5112744;28;24521;-75
2022/02/05 09:07:43;;;;;;;7.97;2.92;;;;;;;2.63;100.00;96468.41;5112484;28;24440;-76
2022/02/05 09:10:23;;;;;;;11.07;4.13;;;;;;;2.65;100.00;96464.09;5112494;28;25050;-76
2022/02/05 09:15:45;;;;;;;7.13;3.33;;;;;;;2.96;100.00;96453.19;5069432;28;24429;-76
2022/02/05 09:18:13;;;;;;;4.43;2.08;;;;;;;2.91;100.00;96450.75;5101804;28;24436;-76
2022/02/05 09:20:40;;;;;;;4.90;1.80;;;;;;;2.68;100.00;96463.19;5112292;28;24946;-76
2022/02/05 09:23:07;;;;;;;5.35;2.33;;;;;;;2.59;100.00;96453.13;5112681;28;24495;-77
2022/02/05 09:25:36;;;;;;;6.00;3.00;;;;;;;2.63;100.00;96449.63;5112138;28;25001;-75
2022/02/05 09:28:02;;;;;;;36.15;7.30;;;;;;;2.62;100.00;96453.91;5112311;28;24448;-75
2022/02/05 09:30:31;;;;;;;6.68;2.05;;;;;;;2.14;100.00;96461.66;5111829;28;24440;-75
2022/02/05 09:32:57;;;;;;;5.30;2.60;;;;;;;2.26;100.00;96460.59;5111913;28;24430;-74
2022/02/05 09:35:25;;;;;;;7.90;3.65;;;;;;;2.30;100.00;96466.47;5112293;28;24437;-74
2022/02/05 09:37:51;;;;;;;9.95;3.08;;;;;;;2.46;100.00;96472.16;5111914;28;24885;-74
2022/02/05 09:40:18;;;;;;;8.70;2.70;;;;;;;2.47;100.00;96467.00;5111798;28;24478;-74
2022/02/05 09:42:46;;;;;;;8.27;2.65;;;;;;;2.38;100.00;96477.44;5111894;28;24429;-75
2022/02/05 09:45:13;;;;;;;4.57;1.83;;;;;;;2.52;100.00;96474.56;5112205;28;24947;-76
2022/02/05 09:47:39;;;;;;;4.43;1.80;;;;;;;2.73;100.00;96463.09;5111766;28;24444;-76
2022/02/05 09:50:07;;;;;;;5.82;2.13;;;;;;;2.86;100.00;96470.47;5111827;28;24421;-76
2022/02/05 09:52:35;;;;;;;6.20;1.85;;;;;;;2.97;99.19;96464.28;5111479;28;24425;-75
2022/02/05 09:55:01;;;;;;;5.78;1.48;;;;;;;3.17;99.43;96468.97;5111950;28;24432;-76
2022/02/05 09:57:28;;;;;;;6.10;1.65;;;;;;;3.29;98.49;96476.34;5111706;28;24424;-75
2022/02/05 09:59:58;;;;;;;8.93;1.73;;;;;;;3.19;96.20;96472.31;5111863;28;24441;-77
2022/02/05 10:02:26;;;;;;;5.55;1.50;;;;;;;3.38;97.56;96468.47;5111823;28;24486;-76
2022/02/05 10:04:55;;;;;;;4.18;1.63;;;;;;;3.63;95.43;96469.56;5111414;28;24421;-76
2022/02/05 10:07:21;;;;;;;8.73;1.80;;;;;;;3.23;93.79;96469.66;5111824;28;24842;-79
2022/02/05 10:09:55;;;;;;;4.72;1.33;;;;;;;3.29;91.96;96479.75;5112165;28;24812;-77
2022/02/05 10:12:22;;;;;;;7.53;1.67;;;;;;;3.34;93.41;96490.75;5111729;28;24418;-76
2022/02/05 10:14:51;;;;;;;4.75;1.55;;;;;;;3.57;91.92;96477.41;5111503;28;24440;-76
2022/02/05 10:17:19;;;;;;;4.50;1.65;;;;;;;3.48;93.17;96480.16;5111275;28;24432;-76
2022/02/05 10:19:48;;;;;;;6.43;1.75;;;;;;;3.77;90.35;96487.16;5111359;28;24491;-77
2022/02/05 10:22:15;;;;;;;5.72;1.70;;;;;;;3.65;88.76;96487.47;5111533;28;24421;-76
2022/02/05 10:24:49;;;;;;;6.57;1.60;;;;;;;3.61;90.32;96484.13;5111347;28;24440;-77
2022/02/05 10:27:27;;;;;;;5.47;1.63;;;;;;;3.78;91.08;96496.53;5111164;28;24818;-77
2022/02/05 10:30:08;;;;;;;4.63;1.60;;;;;;;3.72;89.22;96485.59;5111443;28;24465;-76
2022/02/05 10:32:40;;;;;;;6.25;1.58;;;;;;;3.88;89.67;96492.00;5111256;28;24421;-77
2022/02/05 10:35:19;;;;;;;5.97;1.50;;;;;;;3.59;89.23;96490.16;5111012;28;25016;-77
2022/02/05 10:37:51;;;;;;;4.90;1.55;;;;;;;3.63;88.69;96490.06;5111203;28;24504;-78
2022/02/05 10:40:22;;;;;;;9.65;1.73;;;;;;;3.78;87.62;96496.53;5111100;28;24445;-76
2022/02/05 10:45:39;;;;;;;6.88;1.88;;;;;;;3.91;89.04;96498.78;5108928;28;24595;-76
2022/02/05 10:48:06;;;;;;;5.88;1.30;;;;;;;4.30;86.99;96502.91;5111074;28;24461;-77
2022/02/05 10:50:34;;;;;;;3.63;1.48;;;;;;;4.28;83.21;96498.69;5111135;28;24881;-77
2022/02/05 10:53:07;;;;;;;5.82;1.60;;;;;;;3.85;85.28;96510.03;5110817;28;24457;-76
2022/02/05 10:55:44;;;;;;;4.38;1.27;;;;;;;3.83;87.67;96504.09;5111182;28;24482;-77
2022/02/05 10:58:24;;;;;;;6.90;1.58;;;;;;;3.99;85.23;96510.53;5111193;28;24508;-77
2022/02/05 11:06:19;;;;;;;4.63;1.30;;;;;;;3.74;84.57;96510.28;5110714;28;24953;-77
2022/02/05 11:08:46;;;;;;;11.60;1.52;;;;;;;3.85;82.21;96508.28;5110807;28;24445;-76
2022/02/05 11:19:52;;;;;;;5.20;2.70;;;;;;;3.92;81.31;96501.31;5108438;28;24394;-76
2022/02/05 11:22:20;;;;;;;8.87;1.63;;;;;;;3.95;82.38;96508.09;5108721;28;24422;-76
2022/02/05 11:24:49;;;;;;;4.25;1.63;;;;;;;4.00;81.64;96503.66;5108637;28;24814;-76
2022/02/05 11:27:15;;;;;;;5.00;1.50;;;;;;;3.94;80.63;96503.84;5108079;28;24947;-76
2022/02/05 11:29:42;;;;;;;4.68;1.40;;;;;;;3.78;82.31;96496.53;5108429;28;24465;-75
2022/02/05 11:32:21;;;;;;;4.35;1.20;;;;;;;3.85;82.58;96492.09;5108499;28;24775;-76
2022/02/05 11:35:04;;;;;;;6.97;1.20;;;;;;;3.80;81.14;96496.50;5108191;28;24465;-77
2022/02/05 11:37:31;;;;;;;4.35;1.08;;;;;;;3.74;81.55;96497.47;5108271;28;24425;-76
2022/02/05 11:39:58;;;;;;;3.75;1.20;;;;;;;3.86;83.32;96493.78;5108256;28;24426;-75
2022/02/05 11:42:26;;;;;;;5.43;1.33;;;;;;;3.94;83.76;96491.88;5108288;28;24429;-76
2022/02/05 11:44:53;;;;;;;4.18;1.20;;;;;;;3.97;84.23;96488.38;5108224;28;24796;-76
2022/02/05 11:47:26;;;;;;;3.05;1.20;;;;;;;3.92;82.13;96491.06;5107993;28;24438;-76
2022/02/05 11:50:18;;;;;;;7.18;1.40;;;;;;;4.04;82.75;96489.91;5108175;28;24507;-76
2022/02/05 11:53:01;;;;;;;3.20;1.23;;;;;;;4.10;82.01;96494.88;5107963;28;24425;-76
2022/02/05 11:55:33;;;;;;;4.50;1.57;;;;;;;4.17;81.84;96493.84;5107851;28;24834;-75
2022/02/05 11:58:01;;;;;;;5.53;1.38;;;;;;;4.15;80.81;96498.16;5107765;28;24472;-76
2022/02/05 12:00:32;;;;;;;5.57;1.33;;;;;;;4.12;81.79;96488.00;5107912;28;24437;-76
2022/02/05 12:03:17;;;;;;;3.40;1.73;;;;;;;4.29;80.50;96495.25;5107760;28;24430;-76
2022/02/05 12:05:49;;;;;;;2.53;1.20;;;;;;;4.28;80.80;96488.44;5107828;28;24790;-76
2022/02/05 12:08:24;;;;;;;6.10;1.30;;;;;;;4.16;81.38;96491.34;5107724;28;24504;-75
2022/02/05 12:10:52;;;;;;;3.95;1.42;;;;;;;4.09;79.86;96486.34;5108335;28;24975;-77
2022/02/05 12:13:21;;;;;;;3.40;1.50;;;;;;;4.19;79.79;96497.22;5107385;28;24460;-74
2022/02/05 12:15:50;;;;;;;2.42;1.05;;;;;;;4.02;80.54;96494.25;5116914;28;24452;-74
2022/02/05 12:18:21;;;;;;;3.25;1.05;;;;;;;4.08;79.31;96479.56;5127400;28;24421;-75
2022/02/05 12:21:14;;;;;;;2.72;1.02;;;;;;;4.11;79.64;96492.25;5127681;27;24425;-74
2022/02/05 12:26:54;;;;;;;3.08;1.20;;;;;;;4.16;76.32;96474.22;5096903;27;24526;-74
2022/02/05 12:29:34;;;;;;;2.90;1.20;;;;;;;4.17;76.16;96473.31;5113964;28;24418;-74
2022/02/05 12:32:01;;;;;;;3.50;1.10;;;;;;;4.35;77.60;96474.56;5113918;28;24414;-74
2022/02/05 12:34:37;;;;;;;6.35;1.92;;;;;;;4.38;77.93;96473.66;5113840;28;24422;-74
2022/02/05 12:37:05;;;;;;;5.07;1.10;;;;;;;4.47;78.91;96468.25;5113334;28;24486;-73
2022/02/05 12:39:35;;;;;;;5.47;2.03;;;;;;;4.48;79.26;96462.25;5113581;27;24953;-74
2022/02/05 12:42:06;;;;;;;3.15;1.20;;;;;;;4.55;76.55;96466.31;5113794;28;24413;-74
2022/02/05 12:44:35;;;;;;;4.55;1.40;;;;;;;4.52;78.44;96463.84;5113429;28;24499;-74
2022/02/05 12:47:08;;;;;;;2.63;1.10;;;;;;;4.46;77.15;96467.41;5113315;28;24525;-73
2022/02/05 12:49:42;;;;;;;4.32;1.25;;;;;;;4.38;78.21;96465.97;5113376;28;24422;-74
2022/02/05 12:52:10;;;;;;;4.50;1.15;;;;;;;4.45;77.78;96476.00;5113567;28;24430;-74
2022/02/05 12:54:45;;;;;;;3.33;1.00;;;;;;;4.29;78.90;96473.00;5113448;28;24461;-74
2022/02/05 12:57:16;;;;;;;4.70;1.35;;;;;;;4.24;76.99;96461.19;5113104;28;24540;-73
2022/02/05 12:59:42;;;;;;;5.22;1.42;;;;;;;4.30;77.17;96468.69;5113336;28;24795;-74
2022/02/05 13:02:11;;;;;;;6.50;1.15;;;;;;;4.30;79.16;96471.28;5113162;28;24417;-74
2022/02/05 13:04:41;;;;;;;4.45;1.20;;;;;;;4.25;78.24;96465.44;5113128;28;24424;-74
2022/02/05 13:07:09;;;;;;;9.45;1.48;;;;;;;4.25;78.25;96471.41;5113020;28;24428;-74
2022/02/05 13:09:41;;;;;;;5.17;1.13;;;;;;;4.18;78.40;96472.44;5113151;28;24414;-73
2022/02/05 13:12:10;;;;;;;3.67;1.27;;;;;;;4.10;77.44;96471.81;5113105;28;24833;-73
2022/02/05 13:14:39;;;;;;;4.72;1.35;;;;;;;4.16;77.85;96458.84;5112681;28;24455;-74
2022/02/05 13:17:09;;;;;;;3.30;1.20;;;;;;;4.15;78.33;96462.25;5112701;28;24441;-74
2022/02/05 13:19:54;;;;;;;2.92;1.30;;;;;;;4.23;79.67;96459.53;5113014;28;24425;-74
2022/02/05 13:28:26;;;;;;;3.85;1.48;;;;;;;4.29;78.03;96459.34;5108059;27;24978;-74